createdAt,value
2023-05-14T00:00:58.910Z,0.00
2023-05-14T00:01:59.235Z,0.00
2023-05-14T00:02:59.699Z,0.00
2023-05-14T00:03:59.780Z,0.00
2023-05-14T00:05:00.040Z,0.00
2023-05-14T00:06:00.288Z,0.00
2023-05-14T00:07:00.604Z,0.00
2023-05-14T00:08:00.838Z,0.00
2023-05-14T00:09:01.307Z,0.00
2023-05-14T00:10:01.428Z,0.00
2023-05-14T00:11:01.669Z,0.00
2023-05-14T00:12:01.936Z,0.00
2023-05-14T00:13:03.269Z,0.00
2023-05-14T00:14:02.510Z,0.00
2023-05-14T00:15:02.770Z,0.00
2023-05-14T00:16:03.071Z,0.00
2023-05-14T00:17:03.335Z,0.00
2023-05-14T00:18:03.615Z,0.00
2023-05-14T00:19:03.914Z,0.00
2023-05-14T00:20:04.146Z,0.00
2023-05-14T00:21:04.573Z,0.00
2023-05-14T00:22:04.834Z,0.00
2023-05-14T00:23:05.084Z,0.00
2023-05-14T00:24:05.299Z,0.00
2023-05-14T00:25:05.667Z,0.00
2023-05-14T00:26:05.933Z,0.00
2023-05-14T00:27:06.197Z,0.00
2023-05-14T00:28:06.447Z,0.00
2023-05-14T00:29:06.725Z,0.00
2023-05-14T00:30:07.027Z,0.00
2023-05-14T00:31:07.264Z,0.00
2023-05-14T00:32:07.641Z,0.00
2023-05-14T00:33:07.947Z,0.00
2023-05-14T00:34:08.193Z,0.00
2023-05-14T00:35:08.465Z,0.00
2023-05-14T00:36:08.716Z,0.00
2023-05-14T00:37:09.105Z,0.00
2023-05-14T00:38:09.342Z,0.00
2023-05-14T00:39:09.711Z,0.00
2023-05-14T00:40:09.953Z,0.00
2023-05-14T00:41:10.305Z,0.00
2023-05-14T00:42:10.661Z,0.00
2023-05-14T00:43:11.269Z,0.00
2023-05-14T00:44:11.297Z,0.00
2023-05-14T00:45:11.675Z,0.00
2023-05-14T00:46:11.941Z,0.00
2023-05-14T00:47:12.326Z,0.00
2023-05-14T00:48:12.555Z,0.00
2023-05-14T00:49:12.822Z,0.00
2023-05-14T00:50:13.047Z,0.00
2023-05-14T00:51:13.432Z,0.00
2023-05-14T00:52:13.665Z,0.00
2023-05-14T00:53:13.905Z,0.00
2023-05-14T00:54:14.276Z,0.00
2023-05-14T00:55:14.514Z,0.00
2023-05-14T00:56:14.753Z,0.00
2023-05-14T00:57:15.145Z,0.00
2023-05-14T00:58:15.395Z,0.00
2023-05-14T00:59:15.740Z,0.00
2023-05-14T01:00:15.980Z,0.00
2023-05-14T01:01:16.344Z,0.00
2023-05-14T01:02:16.672Z,0.00
2023-05-14T01:03:17.100Z,0.00
2023-05-14T01:04:17.353Z,0.00
2023-05-14T01:05:17.698Z,0.00
2023-05-14T01:06:18.039Z,0.00
2023-05-14T01:07:18.423Z,0.00
2023-05-14T01:08:18.660Z,0.00
2023-05-14T01:09:19.015Z,0.00
2023-05-14T01:10:19.358Z,0.00
2023-05-14T01:11:19.730Z,0.00
2023-05-14T01:12:19.982Z,0.00
2023-05-14T01:13:20.332Z,0.00
2023-05-14T01:14:20.584Z,0.00
2023-05-14T01:15:20.959Z,0.00
2023-05-14T01:16:21.233Z,0.00
2023-05-14T01:17:21.468Z,0.00
2023-05-14T01:18:21.726Z,0.00
2023-05-14T01:19:22.086Z,0.00
2023-05-14T01:20:22.761Z,0.00
2023-05-14T01:21:22.759Z,0.00
2023-05-14T01:22:23.040Z,0.00
2023-05-14T01:23:23.302Z,0.00
2023-05-14T01:24:23.549Z,0.00
2023-05-14T01:25:23.937Z,0.00
2023-05-14T01:26:24.165Z,0.00
2023-05-14T01:27:24.557Z,0.00
2023-05-14T01:28:24.820Z,0.00
2023-05-14T01:29:25.080Z,0.00
2023-05-14T01:30:25.785Z,0.00
2023-05-14T01:31:25.640Z,0.00
2023-05-14T01:32:25.922Z,0.00
2023-05-14T01:33:26.190Z,0.00
2023-05-14T01:34:26.507Z,0.00
2023-05-14T01:35:26.883Z,0.00
2023-05-14T01:36:27.217Z,0.00
2023-05-14T01:37:27.603Z,0.00
2023-05-14T01:38:27.879Z,0.00
2023-05-14T01:39:28.097Z,0.00
2023-05-14T01:40:28.460Z,0.00
2023-05-14T01:41:28.813Z,0.00
2023-05-14T01:42:29.099Z,0.00
2023-05-14T01:43:29.501Z,0.00
2023-05-14T01:44:29.697Z,0.00
2023-05-14T01:45:29.934Z,0.00
2023-05-14T01:46:30.251Z,0.00
2023-05-14T01:47:30.590Z,0.00
2023-05-14T01:48:30.814Z,0.00
2023-05-14T01:49:31.191Z,0.00
2023-05-14T01:50:31.445Z,0.00
2023-05-14T01:51:31.803Z,0.00
2023-05-14T01:52:32.060Z,0.00
2023-05-14T01:53:32.325Z,0.00
2023-05-14T01:54:32.572Z,0.00
2023-05-14T01:55:32.947Z,0.00
2023-05-14T01:56:33.191Z,0.00
2023-05-14T01:57:33.578Z,0.00
2023-05-14T01:58:33.830Z,0.00
2023-05-14T01:59:34.085Z,0.00
2023-05-14T02:00:34.332Z,0.00
2023-05-14T02:01:34.748Z,0.00
2023-05-14T02:02:35.069Z,0.00
2023-05-14T02:03:35.293Z,0.00
2023-05-14T02:04:35.534Z,0.00
2023-05-14T02:05:35.998Z,0.00
2023-05-14T02:06:36.204Z,0.00
2023-05-14T02:07:36.474Z,0.00
2023-05-14T02:08:36.721Z,0.00
2023-05-14T02:09:36.975Z,0.00
2023-05-14T02:10:37.252Z,0.00
2023-05-14T02:11:37.484Z,0.00
2023-05-14T02:12:37.743Z,0.00
2023-05-14T02:13:37.987Z,0.00
2023-05-14T02:14:38.235Z,0.00
2023-05-14T02:15:38.557Z,0.00
2023-05-14T02:16:38.759Z,0.00
2023-05-14T02:17:39.085Z,0.00
2023-05-14T02:18:39.306Z,0.00
2023-05-14T02:19:39.652Z,0.00
2023-05-14T02:20:39.882Z,0.00
2023-05-14T02:21:40.128Z,0.00
2023-05-14T02:22:40.408Z,0.00
2023-05-14T02:23:42.167Z,0.00
2023-05-14T02:24:40.983Z,0.00
2023-05-14T02:25:41.272Z,0.00
2023-05-14T02:26:41.472Z,0.00
2023-05-14T02:27:41.849Z,0.00
2023-05-14T02:28:42.093Z,0.00
2023-05-14T02:29:42.332Z,0.00
2023-05-14T02:30:42.609Z,0.00
2023-05-14T02:31:42.884Z,0.00
2023-05-14T02:32:43.207Z,0.00
2023-05-14T02:33:43.495Z,0.00
2023-05-14T02:34:43.719Z,0.00
2023-05-14T02:35:43.968Z,4.00
2023-05-14T02:36:44.192Z,4.00
2023-05-14T02:37:44.571Z,4.00
2023-05-14T02:38:44.811Z,0.00
2023-05-14T02:39:45.152Z,4.00
2023-05-14T02:40:45.516Z,4.00
2023-05-14T02:41:45.816Z,4.00
2023-05-14T02:42:46.181Z,4.00
2023-05-14T02:43:46.418Z,4.00
2023-05-14T02:44:46.770Z,4.00
2023-05-14T02:45:47.129Z,8.00
2023-05-14T02:46:47.418Z,4.00
2023-05-14T02:47:47.701Z,4.00
2023-05-14T02:48:47.965Z,8.00
2023-05-14T02:49:48.208Z,8.00
2023-05-14T02:50:48.566Z,12.00
2023-05-14T02:51:48.787Z,12.00
2023-05-14T02:52:49.162Z,12.00
2023-05-14T02:53:49.396Z,12.00
2023-05-14T02:54:49.743Z,16.00
2023-05-14T02:55:49.967Z,16.00
2023-05-14T02:56:50.316Z,20.00
2023-05-14T02:57:50.563Z,20.00
2023-05-14T02:58:50.943Z,24.00
2023-05-14T02:59:51.160Z,24.00
2023-05-14T03:00:51.546Z,28.00
2023-05-14T03:01:51.795Z,32.00
2023-05-14T03:02:52.158Z,36.00
2023-05-14T03:03:52.351Z,40.00
2023-05-14T03:04:52.681Z,44.00
2023-05-14T03:05:52.895Z,48.00
2023-05-14T03:06:53.258Z,56.00
2023-05-14T03:07:53.643Z,60.00
2023-05-14T03:08:53.907Z,64.00
2023-05-14T03:09:54.241Z,72.00
2023-05-14T03:10:54.577Z,84.00
2023-05-14T03:11:54.920Z,88.00
2023-05-14T03:12:55.279Z,96.00
2023-05-14T03:13:55.520Z,100.00
2023-05-14T03:14:55.852Z,112.00
2023-05-14T03:15:56.202Z,120.00
2023-05-14T03:16:56.591Z,128.00
2023-05-14T03:17:56.851Z,136.00
2023-05-14T03:18:57.120Z,144.00
2023-05-14T03:19:57.388Z,156.00
2023-05-14T03:20:57.665Z,168.00
2023-05-14T03:21:57.862Z,188.00
2023-05-14T03:22:58.240Z,204.00
2023-05-14T03:23:58.499Z,220.00
2023-05-14T03:24:58.731Z,236.00
2023-05-14T03:25:58.969Z,252.00
2023-05-14T03:26:59.308Z,272.00
2023-05-14T03:27:59.672Z,296.00
2023-05-14T03:28:59.918Z,316.00
2023-05-14T03:30:00.217Z,344.00
2023-05-14T03:31:00.544Z,372.00
2023-05-14T03:32:00.757Z,404.00
2023-05-14T03:33:01.150Z,428.00
2023-05-14T03:34:01.371Z,464.00
2023-05-14T03:35:01.722Z,500.00
2023-05-14T03:36:01.963Z,540.00
2023-05-14T03:37:02.246Z,580.00
2023-05-14T03:38:02.471Z,624.00
2023-05-14T03:39:02.712Z,668.00
2023-05-14T03:40:02.942Z,716.00
2023-05-14T03:41:03.293Z,772.00
2023-05-14T03:42:03.522Z,836.00
2023-05-14T03:43:03.888Z,912.00
2023-05-14T03:44:04.126Z,996.00
2023-05-14T03:45:04.473Z,1076.00
2023-05-14T03:46:04.726Z,1152.00
2023-05-14T03:47:05.074Z,1216.00
2023-05-14T03:48:05.380Z,1264.00
2023-05-14T03:49:05.677Z,1292.00
2023-05-14T03:50:05.935Z,1324.00
2023-05-14T03:51:06.176Z,1328.00
2023-05-14T03:52:06.405Z,1320.00
2023-05-14T03:53:06.782Z,1320.00
2023-05-14T03:54:07.031Z,1336.00
2023-05-14T03:55:07.354Z,1364.00
2023-05-14T03:56:07.714Z,1388.00
2023-05-14T03:57:08.063Z,1408.00
2023-05-14T03:58:08.310Z,1432.00
2023-05-14T03:59:08.573Z,1468.00
2023-05-14T04:00:08.827Z,1508.00
2023-05-14T04:01:09.081Z,1536.00
2023-05-14T04:02:09.454Z,1544.00
2023-05-14T04:03:09.732Z,1552.00
2023-05-14T04:04:09.989Z,1556.00
2023-05-14T04:05:10.181Z,1556.00
2023-05-14T04:06:10.552Z,1580.00
2023-05-14T04:07:10.883Z,1604.00
2023-05-14T04:08:11.254Z,1632.00
2023-05-14T04:09:11.514Z,1660.00
2023-05-14T04:10:11.741Z,1684.00
2023-05-14T04:11:12.101Z,1700.00
2023-05-14T04:12:12.345Z,1720.00
2023-05-14T04:13:12.705Z,1744.00
2023-05-14T04:14:12.957Z,1768.00
2023-05-14T04:15:13.295Z,1800.00
2023-05-14T04:16:13.538Z,1828.00
2023-05-14T04:17:13.920Z,1868.00
2023-05-14T04:18:14.218Z,1904.00
2023-05-14T04:19:14.543Z,1948.00
2023-05-14T04:20:14.777Z,2012.00
2023-05-14T04:21:15.173Z,2100.00
2023-05-14T04:22:15.426Z,2160.00
2023-05-14T04:23:15.690Z,2236.00
2023-05-14T04:24:15.936Z,2320.00
2023-05-14T04:25:16.289Z,2428.00
2023-05-14T04:26:16.639Z,2536.00
2023-05-14T04:27:16.902Z,2652.00
2023-05-14T04:28:17.146Z,2728.00
2023-05-14T04:29:17.520Z,2776.00
2023-05-14T04:30:17.783Z,2808.00
2023-05-14T04:31:18.051Z,2840.00
2023-05-14T04:32:18.265Z,2864.00
2023-05-14T04:33:18.524Z,2924.00
2023-05-14T04:34:18.773Z,2960.00
2023-05-14T04:35:19.123Z,3004.00
2023-05-14T04:36:19.355Z,3068.00
2023-05-14T04:37:19.731Z,3112.00
2023-05-14T04:38:19.974Z,3180.00
2023-05-14T04:39:20.222Z,3232.00
2023-05-14T04:40:20.586Z,3272.00
2023-05-14T04:41:20.861Z,3324.00
2023-05-14T04:42:21.093Z,3376.00
2023-05-14T04:43:21.473Z,3420.00
2023-05-14T04:44:21.711Z,3464.00
2023-05-14T04:45:22.079Z,3512.00
2023-05-14T04:46:22.453Z,3552.00
2023-05-14T04:47:22.728Z,3596.00
2023-05-14T04:48:23.018Z,3640.00
2023-05-14T04:49:23.270Z,3680.00
2023-05-14T04:50:23.725Z,3724.00
2023-05-14T04:51:23.853Z,3764.00
2023-05-14T04:52:24.094Z,3804.00
2023-05-14T04:53:24.479Z,3840.00
2023-05-14T04:54:24.730Z,3888.00
2023-05-14T04:55:25.059Z,3936.00
2023-05-14T04:56:25.403Z,3988.00
2023-05-14T04:57:25.763Z,4036.00
2023-05-14T04:58:26.139Z,4100.00
2023-05-14T04:59:26.384Z,4148.00
2023-05-14T05:00:26.793Z,4200.00
2023-05-14T05:01:27.121Z,4244.00
2023-05-14T05:02:27.274Z,4284.00
2023-05-14T05:03:27.674Z,4320.00
2023-05-14T05:04:27.886Z,4348.00
2023-05-14T05:05:28.128Z,4380.00
2023-05-14T05:06:28.470Z,4416.00
2023-05-14T05:07:28.830Z,4448.00
2023-05-14T05:08:29.094Z,4484.00
2023-05-14T05:09:29.332Z,4528.00
2023-05-14T05:10:29.699Z,4572.00
2023-05-14T05:11:29.964Z,4616.00
2023-05-14T05:12:30.237Z,4656.00
2023-05-14T05:13:30.572Z,4684.00
2023-05-14T05:14:30.810Z,4704.00
2023-05-14T05:15:31.165Z,4624.00
2023-05-14T05:16:31.442Z,4512.00
2023-05-14T05:17:31.697Z,4344.00
2023-05-14T05:18:31.952Z,4268.00
2023-05-14T05:19:42.542Z,4184.00
2023-05-14T05:20:33.506Z,4140.00
2023-05-14T05:21:32.861Z,4140.00
2023-05-14T05:22:33.104Z,4224.00
2023-05-14T05:23:33.361Z,4368.00
2023-05-14T05:24:33.587Z,4564.00
2023-05-14T05:25:33.961Z,4840.00
2023-05-14T05:26:34.175Z,5164.00
2023-05-14T05:27:34.521Z,5544.00
2023-05-14T05:28:34.899Z,5772.00
2023-05-14T05:29:35.177Z,5884.00
2023-05-14T05:30:35.417Z,6084.00
2023-05-14T05:31:35.697Z,5844.00
2023-05-14T05:32:35.893Z,5920.00
2023-05-14T05:33:36.269Z,6252.00
2023-05-14T05:34:36.518Z,6780.00
2023-05-14T05:35:36.862Z,7436.00
2023-05-14T05:36:37.200Z,7688.00
2023-05-14T05:37:37.546Z,7832.00
2023-05-14T05:38:37.802Z,7812.00
2023-05-14T05:39:38.035Z,7760.00
2023-05-14T05:40:38.271Z,7604.00
2023-05-14T05:41:38.617Z,7620.00
2023-05-14T05:42:38.871Z,8000.00
2023-05-14T05:43:39.130Z,8060.00
2023-05-14T05:44:39.354Z,8348.00
2023-05-14T05:45:40.628Z,9516.00
2023-05-14T05:46:40.029Z,10108.00
2023-05-14T05:47:40.256Z,10816.00
2023-05-14T05:48:40.469Z,10640.00
2023-05-14T05:49:47.735Z,9984.00
2023-05-14T05:50:45.821Z,8996.00
2023-05-14T05:51:41.258Z,8188.00
2023-05-14T05:52:44.156Z,8244.00
2023-05-14T05:53:41.832Z,8764.00
2023-05-14T05:54:42.051Z,9420.00
2023-05-14T05:55:42.291Z,10276.00
2023-05-14T05:56:42.540Z,10596.00
2023-05-14T05:57:42.786Z,10924.00
2023-05-14T05:58:43.026Z,11008.00
2023-05-14T05:59:43.253Z,10876.00
2023-05-14T06:00:43.448Z,10636.00
2023-05-14T06:01:43.859Z,10384.00
2023-05-14T06:02:44.444Z,11164.00
2023-05-14T06:03:46.399Z,10344.00
2023-05-14T06:04:44.600Z,10992.00
2023-05-14T06:05:45.062Z,10864.00
2023-05-14T06:06:45.152Z,11324.00
2023-05-14T06:07:45.494Z,11824.00
2023-05-14T06:08:45.724Z,13368.00
2023-05-14T06:09:45.932Z,12132.00
2023-05-14T06:10:47.521Z,12588.00
2023-05-14T06:11:46.502Z,12988.00
2023-05-14T06:12:46.701Z,21696.00
2023-05-14T06:13:47.044Z,22848.00
2023-05-14T06:14:47.260Z,13700.00
2023-05-14T06:15:47.576Z,13856.00
2023-05-14T06:16:47.877Z,14004.00
2023-05-14T06:17:48.053Z,15272.00
2023-05-14T06:18:48.280Z,13340.00
2023-05-14T06:19:48.519Z,13496.00
2023-05-14T06:20:48.719Z,13508.00
2023-05-14T06:21:49.038Z,12936.00
2023-05-14T06:22:49.249Z,13412.00
2023-05-14T06:23:49.570Z,12052.00
2023-05-14T06:24:49.819Z,11484.00
2023-05-14T06:25:50.777Z,11208.00
2023-05-14T06:26:50.265Z,11024.00
2023-05-14T06:27:50.567Z,10832.00
2023-05-14T06:28:50.896Z,10600.00
2023-05-14T06:29:51.120Z,10444.00
2023-05-14T06:30:51.360Z,10472.00
2023-05-14T06:31:51.645Z,10652.00
2023-05-14T06:32:51.936Z,11204.00
2023-05-14T06:33:52.234Z,11836.00
2023-05-14T06:34:52.370Z,12268.00
2023-05-14T06:35:52.709Z,12816.00
2023-05-14T06:36:52.882Z,13164.00
2023-05-14T06:37:53.253Z,13420.00
2023-05-14T06:38:53.458Z,13564.00
2023-05-14T06:39:54.701Z,13504.00
2023-05-14T06:40:53.943Z,13456.00
2023-05-14T06:41:54.249Z,13840.00
2023-05-14T06:42:54.448Z,14212.00
2023-05-14T06:43:54.776Z,14688.00
2023-05-14T06:44:54.974Z,14972.00
2023-05-14T06:45:55.203Z,14508.00
2023-05-14T06:46:55.412Z,13732.00
2023-05-14T06:47:55.709Z,12680.00
2023-05-14T06:48:58.040Z,11552.00
2023-05-14T06:49:56.082Z,10608.00
2023-05-14T06:50:56.282Z,9824.00
2023-05-14T06:51:56.616Z,9592.00
2023-05-14T06:52:56.801Z,10556.00
2023-05-14T06:53:57.139Z,12132.00
2023-05-14T06:54:57.356Z,12540.00
2023-05-14T06:55:57.550Z,12892.00
2023-05-14T06:56:57.894Z,13124.00
2023-05-14T06:57:58.078Z,13064.00
2023-05-14T06:58:58.416Z,12524.00
2023-05-14T06:59:58.629Z,12008.00
2023-05-14T07:00:59.010Z,11676.00
2023-05-14T07:01:59.253Z,11948.00
2023-05-14T07:02:59.594Z,12864.00
2023-05-14T07:03:59.805Z,13924.00
2023-05-14T07:05:00.036Z,14080.00
2023-05-14T07:06:00.244Z,14272.00
2023-05-14T07:07:00.556Z,14764.00
2023-05-14T07:08:00.787Z,15712.00
2023-05-14T07:09:01.021Z,16416.00
2023-05-14T07:10:01.248Z,16352.00
2023-05-14T07:11:01.470Z,15776.00
2023-05-14T07:12:01.669Z,15008.00
2023-05-14T07:13:01.894Z,14288.00
2023-05-14T07:14:02.128Z,13636.00
2023-05-14T07:15:02.355Z,13624.00
2023-05-14T07:16:03.267Z,13764.00
2023-05-14T07:17:02.867Z,14604.00
2023-05-14T07:18:03.052Z,14952.00
2023-05-14T07:19:03.325Z,14836.00
2023-05-14T07:20:03.515Z,14676.00
2023-05-14T07:21:03.717Z,14304.00
2023-05-14T07:22:03.955Z,14124.00
2023-05-14T07:23:04.226Z,14728.00
2023-05-14T07:24:04.433Z,16416.00
2023-05-14T07:25:04.797Z,16480.00
2023-05-14T07:26:04.881Z,16128.00
2023-05-14T07:27:06.061Z,15312.00
2023-05-14T07:28:05.508Z,14932.00
2023-05-14T07:29:05.707Z,14784.00
2023-05-14T07:30:05.954Z,14992.00
2023-05-14T07:31:06.235Z,16480.00
2023-05-14T07:32:06.389Z,17312.00
2023-05-14T07:33:06.597Z,17408.00
2023-05-14T07:34:06.788Z,17568.00
2023-05-14T07:35:06.984Z,18080.00
2023-05-14T07:36:07.159Z,17600.00
2023-05-14T07:37:07.384Z,16480.00
2023-05-14T07:38:07.566Z,15808.00
2023-05-14T07:39:07.781Z,16544.00
2023-05-14T07:40:07.964Z,20064.00
2023-05-14T07:41:08.264Z,33120.00
2023-05-14T07:42:08.461Z,27232.00
2023-05-14T07:43:08.852Z,28128.00
2023-05-14T07:44:08.943Z,29024.00
2023-05-14T07:45:09.134Z,29088.00
2023-05-14T07:46:09.325Z,29056.00
2023-05-14T07:47:09.570Z,30240.00
2023-05-14T07:48:09.906Z,29728.00
2023-05-14T07:49:10.009Z,30464.00
2023-05-14T07:50:10.183Z,31616.00
2023-05-14T07:51:10.472Z,31040.00
2023-05-14T07:52:10.622Z,31296.00
2023-05-14T07:53:10.998Z,32960.00
2023-05-14T07:54:11.196Z,33440.00
2023-05-14T07:55:11.369Z,31424.00
2023-05-14T07:56:11.521Z,31872.00
2023-05-14T07:57:11.820Z,33152.00
2023-05-14T07:58:12.008Z,31744.00
2023-05-14T07:59:12.170Z,31584.00
2023-05-14T08:00:12.353Z,32384.00
2023-05-14T08:01:12.584Z,31584.00
2023-05-14T08:02:12.795Z,34144.00
2023-05-14T08:03:13.034Z,32928.00
2023-05-14T08:04:13.306Z,33216.00
2023-05-14T08:05:13.457Z,37760.00
2023-05-14T08:06:13.588Z,41376.00
2023-05-14T08:07:13.775Z,38592.00
2023-05-14T08:08:13.962Z,51840.00
2023-05-14T08:09:14.149Z,38560.00
2023-05-14T08:10:14.296Z,43328.00
2023-05-14T08:11:14.510Z,62880.00
2023-05-14T08:12:14.654Z,38976.00
2023-05-14T08:13:14.832Z,45760.00
2023-05-14T08:14:15.007Z,39936.00
2023-05-14T08:15:15.162Z,38944.00
2023-05-14T08:16:15.326Z,40192.00
2023-05-14T08:17:15.538Z,49728.00
2023-05-14T08:18:15.789Z,37568.00
2023-05-14T08:19:16.247Z,44064.00
2023-05-14T08:20:16.021Z,40288.00
2023-05-14T08:21:16.173Z,37152.00
2023-05-14T08:22:16.316Z,35648.00
2023-05-14T08:23:16.465Z,36832.00
2023-05-14T08:24:16.660Z,37984.00
2023-05-14T08:25:16.808Z,40128.00
2023-05-14T08:26:16.957Z,42656.00
2023-05-14T08:27:17.096Z,44512.00
2023-05-14T08:28:17.246Z,45952.00
2023-05-14T08:29:17.476Z,51296.00
2023-05-14T08:30:17.613Z,65536.00
2023-05-14T08:31:17.790Z,52768.00
2023-05-14T08:32:23.341Z,47936.00
2023-05-14T08:33:19.069Z,45440.00
2023-05-14T08:34:18.202Z,47360.00
2023-05-14T08:35:18.367Z,51168.00
2023-05-14T08:36:18.509Z,43584.00
2023-05-14T08:37:18.660Z,43488.00
2023-05-14T08:38:18.833Z,76512.00
2023-05-14T08:39:19.019Z,57536.00
2023-05-14T08:40:19.157Z,46688.00
2023-05-14T08:41:19.337Z,47136.00
2023-05-14T08:42:19.457Z,56768.00
2023-05-14T08:43:19.657Z,51456.00
2023-05-14T08:44:19.759Z,49888.00
2023-05-14T08:45:19.920Z,56544.00
2023-05-14T08:46:20.019Z,44992.00
2023-05-14T08:47:20.221Z,51232.00
2023-05-14T08:48:20.497Z,45824.00
2023-05-14T08:49:20.562Z,45152.00
2023-05-14T08:50:23.024Z,45888.00
2023-05-14T08:51:20.857Z,44096.00
2023-05-14T08:52:21.019Z,46560.00
2023-05-14T08:53:21.418Z,48192.00
2023-05-14T08:54:21.355Z,51712.00
2023-05-14T08:55:21.512Z,60416.00
2023-05-14T08:56:21.774Z,60640.00
2023-05-14T08:57:21.853Z,49952.00
2023-05-14T08:58:22.007Z,50496.00
2023-05-14T08:59:22.155Z,46080.00
2023-05-14T09:00:22.557Z,42688.00
2023-05-14T09:01:22.692Z,40992.00
2023-05-14T09:02:22.683Z,45408.00
2023-05-14T09:03:22.832Z,45440.00
2023-05-14T09:04:23.202Z,43392.00
2023-05-14T09:05:23.163Z,42784.00
2023-05-14T09:06:23.306Z,43776.00
2023-05-14T09:07:23.440Z,59264.00
2023-05-14T09:08:23.578Z,64768.00
2023-05-14T09:09:23.750Z,74464.00
2023-05-14T09:10:24.173Z,64320.00
2023-05-14T09:11:24.053Z,63104.00
2023-05-14T09:12:24.191Z,63456.00
2023-05-14T09:13:25.757Z,73760.00
2023-05-14T09:14:25.007Z,76832.00
2023-05-14T09:15:24.592Z,74432.00
2023-05-14T09:16:24.847Z,58976.00
2023-05-14T09:17:24.908Z,56576.00
2023-05-14T09:18:25.120Z,59872.00
2023-05-14T09:19:25.407Z,63136.00
2023-05-14T09:20:25.880Z,72256.00
2023-05-14T09:21:25.523Z,72640.00
2023-05-14T09:22:25.618Z,78016.00
2023-05-14T09:23:25.738Z,73600.00
2023-05-14T09:24:25.919Z,74656.00
2023-05-14T09:25:25.995Z,62720.00
2023-05-14T09:26:26.133Z,57568.00
2023-05-14T09:27:26.222Z,56064.00
2023-05-14T09:28:26.324Z,57088.00
2023-05-14T09:29:26.472Z,76544.00
2023-05-14T09:30:26.727Z,79872.00
2023-05-14T09:31:26.803Z,76672.00
2023-05-14T09:32:26.873Z,80896.00
2023-05-14T09:33:26.946Z,84192.00
2023-05-14T09:34:27.120Z,73152.00
2023-05-14T09:35:28.740Z,77632.00
2023-05-14T09:36:27.260Z,73920.00
2023-05-14T09:37:27.324Z,83648.00
2023-05-14T09:38:27.379Z,85152.00
2023-05-14T09:39:27.505Z,78848.00
2023-05-14T09:40:27.888Z,80000.00
2023-05-14T09:41:27.723Z,75264.00
2023-05-14T09:42:27.811Z,78528.00
2023-05-14T09:43:27.868Z,86144.00
2023-05-14T09:44:27.966Z,48736.00
2023-05-14T09:45:28.035Z,45216.00
2023-05-14T09:46:28.141Z,52640.00
2023-05-14T09:47:28.286Z,51104.00
2023-05-14T09:48:28.293Z,50656.00
2023-05-14T09:49:28.399Z,49216.00
2023-05-14T09:50:28.497Z,41600.00
2023-05-14T09:51:28.590Z,36000.00
2023-05-14T09:52:28.652Z,36480.00
2023-05-14T09:53:28.744Z,41632.00
2023-05-14T09:54:28.837Z,45248.00
2023-05-14T09:55:28.937Z,73120.00
2023-05-14T09:56:29.016Z,96160.00
2023-05-14T09:57:29.145Z,91488.00
2023-05-14T09:58:29.194Z,95168.00
2023-05-14T09:59:29.306Z,91936.00
2023-05-14T10:00:29.396Z,75584.00
2023-05-14T10:01:29.585Z,17248.00
2023-05-14T10:02:29.641Z,15328.00
2023-05-14T10:03:29.726Z,13472.00
2023-05-14T10:04:29.884Z,13412.00
2023-05-14T10:05:30.005Z,13296.00
2023-05-14T10:06:30.042Z,12792.00
2023-05-14T10:07:30.263Z,11856.00
2023-05-14T10:08:30.300Z,10468.00
2023-05-14T10:09:30.397Z,9060.00
2023-05-14T10:10:30.505Z,7456.00
2023-05-14T10:11:30.692Z,6464.00
2023-05-14T10:12:30.789Z,6872.00
2023-05-14T10:13:31.033Z,7656.00
2023-05-14T10:14:31.182Z,8328.00
2023-05-14T10:15:31.301Z,9876.00
2023-05-14T10:16:31.464Z,11688.00
2023-05-14T10:17:31.568Z,14108.00
2023-05-14T10:18:31.749Z,84320.00
2023-05-14T10:19:31.896Z,20224.00
2023-05-14T10:20:32.024Z,31456.00
2023-05-14T10:21:32.152Z,10692.00
2023-05-14T10:22:32.285Z,6864.00
2023-05-14T10:23:32.433Z,5232.00
2023-05-14T10:24:32.655Z,4572.00
2023-05-14T10:25:32.757Z,4020.00
2023-05-14T10:26:32.890Z,3520.00
2023-05-14T10:27:34.080Z,3120.00
2023-05-14T10:28:33.307Z,2904.00
2023-05-14T10:29:33.583Z,2792.00
2023-05-14T10:30:33.631Z,2904.00
2023-05-14T10:31:33.835Z,3300.00
2023-05-14T10:32:34.061Z,4000.00
2023-05-14T10:33:34.189Z,5132.00
2023-05-14T10:34:34.366Z,6716.00
2023-05-14T10:35:34.557Z,8356.00
2023-05-14T10:36:34.715Z,10248.00
2023-05-14T10:37:35.001Z,11440.00
2023-05-14T10:38:35.176Z,11352.00
2023-05-14T10:39:35.464Z,10432.00
2023-05-14T10:40:35.655Z,9212.00
2023-05-14T10:41:35.823Z,8204.00
2023-05-14T10:42:36.079Z,7564.00
2023-05-14T10:43:36.265Z,6980.00
2023-05-14T10:44:36.455Z,6576.00
2023-05-14T10:45:36.652Z,6212.00
2023-05-14T10:46:36.920Z,5836.00
2023-05-14T10:47:37.119Z,5524.00
2023-05-14T10:48:37.336Z,5160.00
2023-05-14T10:49:43.611Z,4940.00
2023-05-14T10:50:38.680Z,4816.00
2023-05-14T10:51:38.012Z,4976.00
2023-05-14T10:52:38.074Z,5540.00
2023-05-14T10:53:38.255Z,6540.00
2023-05-14T10:54:38.584Z,7868.00
2023-05-14T10:55:38.761Z,9084.00
2023-05-14T10:56:38.948Z,9912.00
2023-05-14T10:57:39.160Z,10396.00
2023-05-14T10:58:39.323Z,10672.00
2023-05-14T10:59:39.644Z,10580.00
2023-05-14T11:00:39.823Z,10128.00
2023-05-14T11:01:40.170Z,10060.00
2023-05-14T11:02:40.417Z,10180.00
2023-05-14T11:03:40.701Z,10388.00
2023-05-14T11:04:40.878Z,10652.00
2023-05-14T11:05:41.079Z,10876.00
2023-05-14T11:06:41.248Z,11268.00
2023-05-14T11:07:41.554Z,11424.00
2023-05-14T11:08:41.755Z,11216.00
2023-05-14T11:09:41.971Z,10920.00
2023-05-14T11:10:42.177Z,10328.00
2023-05-14T11:11:42.332Z,9784.00
2023-05-14T11:12:42.634Z,9320.00
2023-05-14T11:13:42.850Z,9064.00
2023-05-14T11:14:43.062Z,8252.00
2023-05-14T11:15:43.240Z,7164.00
2023-05-14T11:16:43.587Z,5876.00
2023-05-14T11:17:43.874Z,4768.00
2023-05-14T11:18:44.066Z,4000.00
2023-05-14T11:19:44.368Z,3552.00
2023-05-14T11:20:44.561Z,3360.00
2023-05-14T11:21:44.796Z,3284.00
2023-05-14T11:22:45.000Z,3188.00
2023-05-14T11:23:45.190Z,3164.00
2023-05-14T11:24:45.522Z,3144.00
2023-05-14T11:25:45.721Z,3200.00
2023-05-14T11:26:46.065Z,3396.00
2023-05-14T11:27:46.272Z,3660.00
2023-05-14T11:28:46.458Z,4004.00
2023-05-14T11:29:46.689Z,4384.00
2023-05-14T11:30:46.980Z,4800.00
2023-05-14T11:31:47.276Z,5280.00
2023-05-14T11:32:47.605Z,5832.00
2023-05-14T11:33:47.728Z,6380.00
2023-05-14T11:34:48.022Z,6960.00
2023-05-14T11:35:48.172Z,7612.00
2023-05-14T11:36:48.375Z,8348.00
2023-05-14T11:37:48.644Z,9068.00
2023-05-14T11:38:49.758Z,9832.00
2023-05-14T11:39:49.202Z,10660.00
2023-05-14T11:40:49.363Z,11576.00
2023-05-14T11:41:49.554Z,12472.00
2023-05-14T11:42:49.844Z,13340.00
2023-05-14T11:43:50.149Z,14036.00
2023-05-14T11:44:50.458Z,14452.00
2023-05-14T11:45:50.668Z,14420.00
2023-05-14T11:46:50.872Z,14308.00
2023-05-14T11:47:51.057Z,13820.00
2023-05-14T11:48:51.229Z,12940.00
2023-05-14T11:49:58.460Z,12056.00
2023-05-14T11:50:52.378Z,11148.00
2023-05-14T11:51:51.875Z,9880.00
2023-05-14T11:52:52.053Z,8836.00
2023-05-14T11:53:52.362Z,8144.00
2023-05-14T11:54:52.640Z,7872.00
2023-05-14T11:55:52.809Z,7656.00
2023-05-14T11:56:53.025Z,7416.00
2023-05-14T11:57:53.204Z,6816.00
2023-05-14T11:58:53.490Z,6300.00
2023-05-14T11:59:53.660Z,6220.00
2023-05-14T12:00:53.981Z,6312.00
2023-05-14T12:01:54.170Z,6600.00
2023-05-14T12:02:54.470Z,6928.00
2023-05-14T12:03:54.639Z,7348.00
2023-05-14T12:04:54.859Z,7940.00
2023-05-14T12:05:55.053Z,8572.00
2023-05-14T12:06:55.328Z,9228.00
2023-05-14T12:07:55.513Z,9748.00
2023-05-14T12:08:55.696Z,10100.00
2023-05-14T12:09:55.873Z,10364.00
2023-05-14T12:10:56.174Z,10548.00
2023-05-14T12:11:56.343Z,10800.00
2023-05-14T12:12:56.629Z,11204.00
2023-05-14T12:13:56.923Z,11472.00
2023-05-14T12:14:57.201Z,11784.00
2023-05-14T12:15:57.548Z,12244.00
2023-05-14T12:16:57.730Z,12668.00
2023-05-14T12:17:57.934Z,13140.00